Time;durP1;ratioP1;P1;durP2;ratioP2;P2;SDS_P1;SDS_P2;PMS_P1;PMS_P2;Temp;Humidity;BMP_temperature;BMP_pressure;BME280_temperature;BME280_humidity;BME280_pressure;Samples;Min_cycle;Max_cycle;Signal;HPM_P1;HPM_P2
2023/10/12 00:01:38;;;;;;;14.53;3.57;;;19.80;99.90;;;;;;4206412;28;20237;-82
2023/10/12 00:03:40;;;;;;;14.63;3.70;;;19.80;99.90;;;;;;4205583;28;20217;-83
2023/10/12 00:05:45;;;;;;;15.00;3.67;;;19.80;99.90;;;;;;4202266;28;20815;-82
2023/10/12 00:07:49;;;;;;;16.90;3.40;;;19.80;99.90;;;;;;4196762;28;20206;-83
2023/10/12 00:10:02;;;;;;;9.60;3.23;;;19.80;99.90;;;;;;4198559;28;20209;-82
2023/10/12 00:12:08;;;;;;;10.47;3.27;;;19.80;99.90;;;;;;4202562;28;20242;-82
2023/10/12 00:14:10;;;;;;;6.83;3.20;;;19.80;99.90;;;;;;4185354;28;20220;-82
2023/10/12 00:16:12;;;;;;;9.50;2.90;;;19.70;99.90;;;;;;4200880;28;20206;-82
2023/10/12 00:18:16;;;;;;;8.97;3.23;;;19.70;99.90;;;;;;4199583;28;20205;-82
2023/10/12 00:20:25;;;;;;;7.83;3.60;;;19.70;99.90;;;;;;4189877;28;20258;-83
2023/10/12 00:22:28;;;;;;;13.97;3.90;;;19.70;99.90;;;;;;4184395;28;20202;-82
2023/10/12 00:24:31;;;;;;;10.57;3.40;;;19.60;99.90;;;;;;4201131;28;20264;-82
2023/10/12 00:26:34;;;;;;;7.53;2.90;;;19.60;99.90;;;;;;4197321;28;20746;-83
2023/10/12 00:28:38;;;;;;;8.87;3.03;;;19.60;99.90;;;;;;4201901;28;20222;-82
2023/10/12 00:30:41;;;;;;;11.17;3.20;;;19.60;99.90;;;;;;4201020;28;20233;-82
2023/10/12 00:32:43;;;;;;;9.13;3.43;;;19.60;99.90;;;;;;4187748;28;20245;-81
2023/10/12 00:34:48;;;;;;;16.43;3.70;;;19.50;99.90;;;;;;4199960;28;20280;-82
2023/10/12 00:36:53;;;;;;;9.70;3.50;;;19.50;99.90;;;;;;4203592;28;20193;-82
2023/10/12 00:38:56;;;;;;;9.30;3.47;;;19.50;99.90;;;;;;4207722;28;20233;-82
2023/10/12 00:41:03;;;;;;;9.90;3.37;;;19.50;99.90;;;;;;4201172;28;20225;-83
2023/10/12 00:43:05;;;;;;;11.20;3.20;;;19.50;99.90;;;;;;4196136;28;20268;-82
2023/10/12 00:45:14;;;;;;;10.73;3.30;;;19.40;99.90;;;;;;4198509;28;20209;-82
2023/10/12 00:47:29;;;;;;;10.90;3.30;;;19.40;99.90;;;;;;4195461;28;20220;-82
2023/10/12 00:49:34;;;;;;;16.07;3.50;;;19.40;99.90;;;;;;4195531;28;20225;-82
2023/10/12 00:51:37;;;;;;;11.17;3.13;;;19.40;99.90;;;;;;4199657;28;20318;-81
2023/10/12 00:53:46;;;;;;;9.27;3.70;;;19.30;99.90;;;;;;4193176;28;20209;-83
2023/10/12 00:55:55;;;;;;;10.60;2.97;;;19.30;99.90;;;;;;4181127;28;20244;-82
2023/10/12 00:57:58;;;;;;;11.17;3.03;;;19.30;99.90;;;;;;4194484;28;20214;-83
2023/10/12 01:00:13;;;;;;;13.30;3.33;;;19.20;99.90;;;;;;4192513;28;20202;-82
2023/10/12 01:02:23;;;;;;;8.20;3.20;;;19.20;99.90;;;;;;4197630;28;20205;-82
2023/10/12 01:04:25;;;;;;;11.27;3.30;;;19.20;99.90;;;;;;4197990;28;20202;-82
2023/10/12 01:06:32;;;;;;;9.67;3.67;;;19.20;99.90;;;;;;4197810;28;20229;-82
2023/10/12 01:08:34;;;;;;;9.00;3.53;;;19.20;99.90;;;;;;4182754;28;20218;-82
2023/10/12 01:10:40;;;;;;;10.97;3.23;;;19.20;99.90;;;;;;4196351;28;20248;-82
2023/10/12 01:12:45;;;;;;;13.40;3.30;;;19.20;99.90;;;;;;4190184;28;20745;-82
2023/10/12 01:14:48;;;;;;;14.60;3.47;;;19.20;99.90;;;;;;4207589;28;20194;-82
2023/10/12 01:16:54;;;;;;;13.93;3.33;;;19.10;99.90;;;;;;4210948;28;20202;-82
2023/10/12 01:19:01;;;;;;;9.67;3.07;;;19.10;99.90;;;;;;4210420;28;20571;-81
2023/10/12 01:21:03;;;;;;;11.37;3.33;;;19.10;99.90;;;;;;4217822;28;20233;-82
2023/10/12 01:23:08;;;;;;;13.10;3.20;;;19.10;99.90;;;;;;4202900;28;20207;-81
2023/10/12 01:25:19;;;;;;;12.90;3.10;;;19.10;99.90;;;;;;4214806;28;20202;-82
2023/10/12 01:27:21;;;;;;;11.60;3.50;;;19.10;99.90;;;;;;4219444;28;20210;-79
2023/10/12 01:29:25;;;;;;;15.50;3.63;;;19.10;99.90;;;;;;4212771;28;20213;-80
2023/10/12 01:31:28;;;;;;;11.40;3.27;;;19.10;99.90;;;;;;4201876;28;20249;-79
2023/10/12 01:33:30;;;;;;;11.20;3.33;;;19.10;99.90;;;;;;4200348;28;20542;-81
2023/10/12 01:35:33;;;;;;;10.83;3.27;;;19.00;99.90;;;;;;4202928;28;20208;-80
2023/10/12 01:37:47;;;;;;;13.83;3.20;;;19.10;99.90;;;;;;4183497;28;20247;-79
2023/10/12 01:39:57;;;;;;;13.70;3.50;;;19.10;99.90;;;;;;4195300;28;20202;-79
2023/10/12 01:42:00;;;;;;;11.10;2.90;;;19.10;99.90;;;;;;4194026;28;20213;-79
2023/10/12 01:44:02;;;;;;;6.80;2.93;;;19.10;99.90;;;;;;4202232;28;20201;-79
2023/10/12 01:46:08;;;;;;;11.60;3.03;;;19.10;99.90;;;;;;4182780;28;20320;-80
2023/10/12 01:48:12;;;;;;;10.77;3.40;;;19.10;99.90;;;;;;4197669;28;20246;-79
2023/10/12 01:50:14;;;;;;;9.33;3.07;;;19.20;99.90;;;;;;4176879;28;20202;-80
2023/10/12 01:52:16;;;;;;;9.23;3.50;;;19.10;99.90;;;;;;4190624;28;20685;-81
2023/10/12 01:54:24;;;;;;;9.17;3.33;;;19.10;99.90;;;;;;4203000;28;20209;-79
2023/10/12 01:56:29;;;;;;;16.87;3.40;;;19.20;99.90;;;;;;4203935;28;20193;-78
2023/10/12 01:58:35;;;;;;;13.73;3.53;;;19.20;99.90;;;;;;4201712;28;20213;-78
2023/10/12 02:00:41;;;;;;;14.57;3.47;;;19.20;99.90;;;;;;4203847;28;20252;-78
2023/10/12 02:02:50;;;;;;;9.13;3.57;;;19.10;99.90;;;;;;4206259;28;20223;-80
2023/10/12 02:04:52;;;;;;;11.57;3.50;;;19.20;99.90;;;;;;4192957;28;20661;-79
2023/10/12 02:06:53;;;;;;;13.47;3.77;;;19.10;99.90;;;;;;4194521;28;20226;-79
2023/10/12 02:08:59;;;;;;;9.73;3.23;;;19.20;99.90;;;;;;4195164;28;20221;-79
2023/10/12 02:11:10;;;;;;;7.87;3.33;;;19.10;99.90;;;;;;4199648;28;20249;-78
2023/10/12 02:13:13;;;;;;;13.73;3.50;;;19.10;99.90;;;;;;4182983;28;20213;-84
2023/10/12 02:15:17;;;;;;;8.60;3.50;;;19.10;99.90;;;;;;4189878;28;20221;-78
2023/10/12 02:17:19;;;;;;;13.93;3.37;;;19.10;99.90;;;;;;4193918;28;20194;-80
2023/10/12 02:19:31;;;;;;;8.97;3.03;;;19.10;99.90;;;;;;4187375;28;20217;-79
2023/10/12 02:21:34;;;;;;;8.90;2.80;;;19.10;99.90;;;;;;4186150;28;20237;-78
2023/10/12 02:23:40;;;;;;;14.07;3.13;;;19.00;99.90;;;;;;4188325;28;20213;-79
2023/10/12 02:25:50;;;;;;;10.40;3.37;;;19.00;99.90;;;;;;4198239;28;20247;-80
2023/10/12 02:27:58;;;;;;;10.50;3.63;;;19.00;99.90;;;;;;4194361;28;20197;-78
2023/10/12 02:30:03;;;;;;;9.17;3.37;;;19.00;99.90;;;;;;4193915;28;20221;-79
2023/10/12 02:32:17;;;;;;;12.93;3.70;;;19.00;99.90;;;;;;4200647;28;20216;-79
2023/10/12 02:34:19;;;;;;;9.23;3.83;;;19.00;99.90;;;;;;4194741;28;20572;-78
2023/10/12 02:36:26;;;;;;;12.30;3.60;;;19.00;99.90;;;;;;4193894;28;20668;-81
2023/10/12 02:38:28;;;;;;;13.83;3.70;;;19.00;99.90;;;;;;4193342;28;20283;-81
2023/10/12 02:40:32;;;;;;;12.03;3.50;;;19.00;99.90;;;;;;4200018;28;20767;-81
2023/10/12 02:42:42;;;;;;;12.13;3.70;;;19.00;99.90;;;;;;4195942;28;20705;-82
2023/10/12 02:44:57;;;;;;;15.53;3.77;;;19.00;99.90;;;;;;4195906;28;20591;-80
2023/10/12 02:47:11;;;;;;;9.93;3.73;;;18.90;99.90;;;;;;4194676;28;20538;-80
2023/10/12 02:49:13;;;;;;;10.83;3.40;;;18.90;99.90;;;;;;4181942;28;20211;-78
2023/10/12 02:51:16;;;;;;;11.07;3.23;;;18.90;99.90;;;;;;4182410;28;20225;-79
2023/10/12 02:53:18;;;;;;;9.10;3.57;;;18.90;99.90;;;;;;4190442;28;20202;-81
2023/10/12 02:55:33;;;;;;;9.13;3.37;;;18.90;99.90;;;;;;4194660;28;20209;-80
2023/10/12 02:57:37;;;;;;;7.50;3.00;;;18.80;99.90;;;;;;4192230;28;20202;-80
2023/10/12 02:59:39;;;;;;;11.27;3.60;;;18.80;99.90;;;;;;4181737;28;20922;-79
2023/10/12 03:01:41;;;;;;;7.27;3.00;;;18.80;99.90;;;;;;4195783;28;20229;-81
2023/10/12 03:03:48;;;;;;;8.53;2.97;;;18.80;99.90;;;;;;4177943;28;20222;-79
2023/10/12 03:05:52;;;;;;;17.17;3.50;;;18.80;99.90;;;;;;4196780;28;20624;-78
2023/10/12 03:07:54;;;;;;;8.47;3.00;;;18.80;99.90;;;;;;4180475;28;20201;-78
2023/10/12 03:09:58;;;;;;;9.17;3.43;;;18.80;99.90;;;;;;4176356;28;20214;-78
2023/10/12 03:12:00;;;;;;;11.10;3.40;;;18.70;99.90;;;;;;4191015;28;20213;-78
2023/10/12 03:14:13;;;;;;;8.23;3.17;;;18.80;99.90;;;;;;4192626;28;20686;-81
2023/10/12 03:16:20;;;;;;;10.03;3.40;;;18.80;99.90;;;;;;4192337;28;20225;-84
2023/10/12 03:18:26;;;;;;;12.40;3.50;;;18.70;99.90;;;;;;4192829;28;20216;-80
2023/10/12 03:20:30;;;;;;;12.43;4.57;;;18.70;99.90;;;;;;4195601;28;20715;-78
2023/10/12 03:22:32;;;;;;;9.10;3.50;;;18.70;99.90;;;;;;4199450;28;20251;-78
2023/10/12 03:24:43;;;;;;;9.50;3.33;;;18.70;99.90;;;;;;4200661;28;20690;-78
2023/10/12 03:26:49;;;;;;;15.77;3.13;;;18.70;99.90;;;;;;4188216;28;20225;-80
2023/10/12 03:28:50;;;;;;;9.97;3.20;;;18.70;99.90;;;;;;4199451;28;20206;-79
2023/10/12 03:30:53;;;;;;;10.33;3.40;;;18.70;99.90;;;;;;4194298;28;20325;-82
2023/10/12 03:32:56;;;;;;;12.17;3.60;;;18.70;99.90;;;;;;4197450;28;20609;-80
2023/10/12 03:34:58;;;;;;;8.53;3.07;;;18.70;99.90;;;;;;4198033;28;20208;-80
2023/10/12 03:37:03;;;;;;;9.70;3.37;;;18.70;99.90;;;;;;4199186;28;20205;-78
2023/10/12 03:39:14;;;;;;;10.67;2.97;;;18.70;99.90;;;;;;4201533;28;20256;-78
2023/10/12 03:43:39;;;;;;;12.77;3.30;;;18.70;99.90;;;;;;4186524;28;20220;-79
2023/10/12 03:45:59;;;;;;;12.00;3.17;;;18.70;99.90;;;;;;4195201;28;20229;-78
2023/10/12 03:48:14;;;;;;;8.67;3.20;;;18.60;99.90;;;;;;4188423;28;20205;-78
2023/10/12 03:50:18;;;;;;;12.20;3.83;;;18.60;99.90;;;;;;4195812;28;20201;-79
2023/10/12 03:52:27;;;;;;;14.17;3.83;;;18.60;99.90;;;;;;4198444;28;20292;-78
2023/10/12 03:54:30;;;;;;;10.20;3.37;;;18.60;99.90;;;;;;4189238;28;20678;-78
2023/10/12 03:56:38;;;;;;;8.10;3.50;;;18.60;99.90;;;;;;4179139;28;20614;-78
2023/10/12 03:58:45;;;;;;;11.27;4.00;;;18.60;99.90;;;;;;4195716;28;20651;-77
2023/10/12 04:01:06;;;;;;;10.67;3.33;;;18.70;99.90;;;;;;4197822;28;20253;-80
2023/10/12 04:03:14;;;;;;;14.40;3.73;;;18.70;99.90;;;;;;4194683;28;20266;-78
2023/10/12 04:05:18;;;;;;;13.57;3.43;;;18.70;99.90;;;;;;4197416;28;20209;-80
2023/10/12 04:07:37;;;;;;;15.10;3.20;;;18.70;99.90;;;;;;4196310;28;20240;-78
2023/10/12 04:09:42;;;;;;;8.20;3.33;;;18.60;99.90;;;;;;4195090;28;20214;-78
2023/10/12 04:11:49;;;;;;;14.70;3.30;;;18.70;99.90;;;;;;4188958;28;20221;-79
2023/10/12 04:14:11;;;;;;;11.17;3.40;;;18.70;99.90;;;;;;4187445;28;20201;-80
2023/10/12 04:19:03;;;;;;;10.60;3.47;;;18.60;99.90;;;;;;4254606;27;20627;-78
2023/10/12 04:21:04;;;;;;;14.97;3.57;;;18.60;99.90;;;;;;4238953;27;20261;-78
2023/10/12 04:23:43;;;;;;;8.13;3.27;;;18.60;99.90;;;;;;4234735;27;20200;-76
2023/10/12 04:25:46;;;;;;;12.13;3.20;;;18.60;99.90;;;;;;4237860;27;20204;-77
2023/10/12 04:27:50;;;;;;;11.70;3.57;;;18.60;99.90;;;;;;4234419;27;20231;-75
2023/10/12 04:29:57;;;;;;;11.70;3.33;;;18.60;99.90;;;;;;4237682;27;20223;-77
2023/10/12 04:32:09;;;;;;;14.53;3.70;;;18.60;99.90;;;;;;4236900;27;20207;-78
2023/10/12 04:34:15;;;;;;;13.73;3.70;;;18.60;99.90;;;;;;4239884;27;20207;-78
2023/10/12 04:36:34;;;;;;;7.43;3.40;;;18.60;99.90;;;;;;4233729;27;20232;-79
2023/10/12 04:38:56;;;;;;;10.77;4.33;;;18.60;99.90;;;;;;4238170;27;20264;-77
2023/10/12 04:43:33;;;;;;;15.67;3.93;;;18.60;99.90;;;;;;4205502;28;20200;-77
2023/10/12 04:47:57;;;;;;;11.33;3.50;;;18.60;99.90;;;;;;4202985;27;20616;-75
2023/10/12 04:49:59;;;;;;;9.40;3.50;;;18.60;99.90;;;;;;4241935;27;20211;-72
2023/10/12 04:52:14;;;;;;;9.70;3.77;;;18.60;99.90;;;;;;4244880;27;20286;-74
2023/10/12 04:54:23;;;;;;;10.77;3.30;;;18.60;99.90;;;;;;4244900;27;20677;-75
2023/10/12 04:56:26;;;;;;;9.47;3.23;;;18.50;99.90;;;;;;4243377;27;20217;-74
2023/10/12 04:58:32;;;;;;;11.37;4.13;;;18.60;99.90;;;;;;4247607;27;20215;-78
2023/10/12 05:00:47;;;;;;;9.97;3.10;;;18.60;99.90;;;;;;4243073;27;20306;-77
2023/10/12 05:03:06;;;;;;;11.03;3.40;;;18.50;99.90;;;;;;4244183;27;20204;-75
2023/10/12 05:05:15;;;;;;;10.80;3.80;;;18.50;99.90;;;;;;4240404;27;20546;-76
2023/10/12 05:07:27;;;;;;;15.97;4.50;;;18.50;99.90;;;;;;4241991;27;20249;-77
2023/10/12 05:09:28;;;;;;;9.00;3.67;;;18.40;99.90;;;;;;4236511;27;20707;-75
2023/10/12 05:11:30;;;;;;;11.57;3.50;;;18.30;99.90;;;;;;4240217;27;20231;-76
2023/10/12 05:13:33;;;;;;;10.67;3.53;;;18.20;99.90;;;;;;4235419;27;20875;-77
2023/10/12 05:15:39;;;;;;;13.43;4.10;;;18.10;99.90;;;;;;4236028;27;20215;-77
2023/10/12 05:17:43;;;;;;;11.60;3.90;;;18.00;99.90;;;;;;4232290;27;20584;-76
2023/10/12 05:19:45;;;;;;;18.07;4.57;;;17.80;99.90;;;;;;4236471;27;20218;-77
2023/10/12 05:21:49;;;;;;;23.07;4.43;;;17.60;99.90;;;;;;4238827;27;20228;-78
2023/10/12 05:23:51;;;;;;;15.00;4.70;;;17.50;99.90;;;;;;4233869;27;20208;-77
2023/10/12 05:26:08;;;;;;;12.43;4.37;;;17.10;99.90;;;;;;4235974;27;20207;-76
2023/10/12 05:28:14;;;;;;;17.20;4.97;;;16.80;99.90;;;;;;4234323;27;20202;-77
2023/10/12 05:30:20;;;;;;;13.67;4.40;;;16.50;99.90;;;;;;4224677;27;20208;-77
2023/10/12 05:32:36;;;;;;;10.13;4.40;;;16.40;99.90;;;;;;4225823;27;20259;-77
2023/10/12 05:34:52;;;;;;;17.93;5.03;;;16.30;99.90;;;;;;4227890;27;20205;-78
2023/10/12 05:36:54;;;;;;;12.20;4.77;;;16.10;99.90;;;;;;4225711;28;20221;-77
2023/10/12 05:39:11;;;;;;;14.80;5.00;;;16.00;99.90;;;;;;4224684;27;20226;-77
2023/10/12 05:41:13;;;;;;;11.90;4.83;;;15.90;99.90;;;;;;4225832;27;20230;-72
2023/10/12 05:43:21;;;;;;;9.97;4.90;;;15.90;99.90;;;;;;4221285;27;20251;-75
2023/10/12 05:45:30;;;;;;;10.47;4.90;;;15.90;99.90;;;;;;4224530;27;20264;-75
2023/10/12 05:47:32;;;;;;;12.00;5.23;;;15.80;99.90;;;;;;4222525;28;20683;-77
2023/10/12 05:49:34;;;;;;;11.93;5.37;;;15.80;99.90;;;;;;4220540;27;20214;-78
2023/10/12 05:51:37;;;;;;;16.70;5.63;;;15.80;99.90;;;;;;4217265;27;21634;-77
2023/10/12 05:53:40;;;;;;;10.80;4.50;;;15.80;99.90;;;;;;4224833;27;20231;-79
2023/10/12 05:55:43;;;;;;;13.37;5.37;;;15.80;99.90;;;;;;4223795;27;20262;-78
2023/10/12 05:57:45;;;;;;;23.43;5.90;;;15.80;99.90;;;;;;4221961;27;20219;-78
2023/10/12 05:59:47;;;;;;;14.00;5.40;;;15.70;99.90;;;;;;4226724;27;20261;-78
2023/10/12 06:01:50;;;;;;;18.50;5.93;;;15.70;99.90;;;;;;4227711;28;20224;-78
2023/10/12 06:03:56;;;;;;;11.67;5.60;;;15.60;99.90;;;;;;4224391;27;20262;-77
2023/10/12 06:05:58;;;;;;;15.47;6.10;;;15.60;99.90;;;;;;4224740;27;20300;-78
2023/10/12 06:08:02;;;;;;;16.20;5.80;;;15.50;99.90;;;;;;4228216;28;20283;-77
2023/10/12 06:10:09;;;;;;;31.40;7.57;;;15.50;99.90;;;;;;4224076;27;20216;-79
2023/10/12 06:12:14;;;;;;;17.07;6.20;;;15.50;99.90;;;;;;4224397;27;20292;-79
2023/10/12 06:14:20;;;;;;;16.47;6.73;;;15.50;99.90;;;;;;4226653;27;20206;-77
2023/10/12 06:16:25;;;;;;;17.27;6.77;;;15.50;99.90;;;;;;4225363;28;20228;-79
2023/10/12 06:18:30;;;;;;;19.50;7.43;;;15.50;99.90;;;;;;4222544;27;20258;-77
2023/10/12 06:20:36;;;;;;;14.67;6.63;;;15.40;99.90;;;;;;4221479;27;20643;-77
2023/10/12 06:22:38;;;;;;;17.37;6.90;;;15.40;99.90;;;;;;4221676;27;20209;-77
2023/10/12 06:24:41;;;;;;;15.23;7.23;;;15.40;99.90;;;;;;4224177;27;20208;-76
2023/10/12 06:26:44;;;;;;;15.60;7.20;;;15.40;99.90;;;;;;4221019;27;20224;-78
2023/10/12 06:28:46;;;;;;;17.53;7.50;;;15.40;99.90;;;;;;4222331;28;20254;-77
2023/10/12 06:30:50;;;;;;;22.33;7.13;;;15.40;99.90;;;;;;4221546;27;20265;-78
2023/10/12 06:32:52;;;;;;;16.60;7.27;;;15.40;99.90;;;;;;4222676;28;20208;-78
2023/10/12 06:35:04;;;;;;;22.30;7.90;;;15.40;99.90;;;;;;4222993;27;20212;-76
2023/10/12 06:37:30;;;;;;;22.47;8.10;;;15.30;99.90;;;;;;4224227;27;20240;-77
2023/10/12 06:42:09;;;;;;;18.23;7.93;;;15.30;99.90;;;;;;4190147;28;20241;-77
2023/10/12 06:44:22;;;;;;;18.07;8.10;;;15.30;99.90;;;;;;4220084;28;20303;-77
2023/10/12 06:46:27;;;;;;;14.33;8.13;;;15.30;99.90;;;;;;4225188;27;20199;-76
2023/10/12 06:50:48;;;;;;;17.23;7.63;;;15.30;99.90;;;;;;4220126;27;20273;-78
2023/10/12 06:52:57;;;;;;;15.20;7.50;;;15.30;99.90;;;;;;4225678;27;20448;-78
2023/10/12 06:54:59;;;;;;;18.90;8.30;;;15.30;99.90;;;;;;4221555;28;20236;-78
2023/10/12 06:59:33;;;;;;;21.17;9.17;;;15.30;99.90;;;;;;4222030;27;20212;-78
2023/10/12 07:01:38;;;;;;;20.70;8.53;;;15.30;99.90;;;;;;4220576;27;20260;-78
2023/10/12 07:03:40;;;;;;;19.00;7.60;;;15.30;99.90;;;;;;4221596;27;20549;-76
2023/10/12 07:05:44;;;;;;;26.93;9.57;;;15.30;99.90;;;;;;4223759;27;20288;-77
2023/10/12 07:07:51;;;;;;;21.57;7.73;;;15.30;99.90;;;;;;4225956;27;20196;-78
2023/10/12 07:09:53;;;;;;;21.50;8.83;;;15.30;99.90;;;;;;4222398;27;20215;-78
2023/10/12 07:11:55;;;;;;;22.23;8.80;;;15.30;99.90;;;;;;4222746;27;20224;-78
2023/10/12 07:14:04;;;;;;;16.03;7.83;;;15.30;99.90;;;;;;4219492;27;20744;-78
2023/10/12 07:16:07;;;;;;;13.90;8.10;;;15.30;99.90;;;;;;4221003;27;20232;-77
2023/10/12 07:18:15;;;;;;;21.33;8.27;;;15.30;99.90;;;;;;4224075;27;20224;-78
2023/10/12 07:20:27;;;;;;;15.03;8.33;;;15.30;99.90;;;;;;4223834;28;20228;-77
2023/10/12 07:22:34;;;;;;;16.47;8.50;;;15.30;99.90;;;;;;4222730;27;20209;-75
2023/10/12 07:24:38;;;;;;;18.33;8.43;;;15.30;99.90;;;;;;4224067;28;20205;-76
2023/10/12 07:26:48;;;;;;;16.87;7.97;;;15.30;99.90;;;;;;4226252;27;20673;-75
2023/10/12 07:28:50;;;;;;;17.77;9.27;;;15.30;99.90;;;;;;4226980;27;20196;-75
2023/10/12 07:33:13;;;;;;;18.57;8.17;;;15.30;99.90;;;;;;4226218;28;20199;-75
2023/10/12 07:35:22;;;;;;;16.90;7.97;;;15.30;99.90;;;;;;4229737;27;20205;-75
2023/10/12 07:37:24;;;;;;;19.23;8.27;;;15.40;99.90;;;;;;4229277;27;20811;-74
2023/10/12 07:39:38;;;;;;;21.07;8.73;;;15.30;99.90;;;;;;4229094;27;20215;-74
2023/10/12 07:41:42;;;;;;;17.77;8.03;;;15.30;99.90;;;;;;4227276;28;20266;-73
2023/10/12 07:43:47;;;;;;;16.30;8.50;;;15.40;99.90;;;;;;4224056;28;20204;-74
2023/10/12 07:45:49;;;;;;;15.90;7.83;;;15.40;99.90;;;;;;4224968;27;20274;-76
2023/10/12 07:47:59;;;;;;;19.03;8.17;;;15.40;99.90;;;;;;4227194;28;20616;-74
2023/10/12 07:50:09;;;;;;;18.17;8.37;;;15.40;99.90;;;;;;4231271;27;20215;-73
2023/10/12 07:52:22;;;;;;;18.57;8.23;;;15.40;99.90;;;;;;4222285;27;20237;-73
2023/10/12 07:54:46;;;;;;;19.00;8.90;;;15.40;99.90;;;;;;4224154;27;20204;-74
2023/10/12 07:56:47;;;;;;;17.90;8.90;;;15.40;99.90;;;;;;4221850;28;20653;-74
2023/10/12 07:58:57;;;;;;;20.43;8.00;;;15.30;99.90;;;;;;4226561;28;20220;-74
2023/10/12 08:01:19;;;;;;;22.03;8.17;;;15.40;99.90;;;;;;4228403;27;20273;-76
2023/10/12 08:03:25;;;;;;;15.13;8.33;;;15.40;99.90;;;;;;4227853;27;20195;-74
2023/10/12 08:05:43;;;;;;;21.33;9.00;;;15.40;99.90;;;;;;4228009;27;20204;-76
2023/10/12 08:07:59;;;;;;;18.93;7.93;;;15.30;99.90;;;;;;4224120;27;20212;-79
2023/10/12 08:10:15;;;;;;;23.07;8.03;;;15.30;99.90;;;;;;4224656;28;20286;-74
2023/10/12 08:12:24;;;;;;;17.73;7.90;;;15.30;99.90;;;;;;4223505;27;20208;-73
2023/10/12 08:14:41;;;;;;;18.47;8.13;;;15.30;99.90;;;;;;4224232;28;20209;-72
2023/10/12 08:16:43;;;;;;;17.07;7.90;;;15.30;99.90;;;;;;4230067;28;20664;-75
2023/10/12 08:19:09;;;;;;;14.80;8.00;;;15.40;99.90;;;;;;4225090;28;20221;-75
2023/10/12 08:21:18;;;;;;;18.97;7.80;;;15.40;99.90;;;;;;4223297;28;20228;-75
2023/10/12 08:23:20;;;;;;;19.23;8.30;;;15.40;99.90;;;;;;4221561;28;20674;-74
2023/10/12 08:25:27;;;;;;;15.90;7.47;;;15.40;99.90;;;;;;4223291;28;20214;-75
2023/10/12 08:27:39;;;;;;;19.30;7.80;;;15.30;99.90;;;;;;4224114;28;20224;-73
2023/10/12 08:32:03;;;;;;;21.63;8.63;;;15.30;99.90;;;;;;4222810;28;20226;-74
2023/10/12 08:34:41;;;;;;;16.33;8.03;;;15.30;99.90;;;;;;4222892;28;20204;-75
2023/10/12 08:36:54;;;;;;;16.67;7.50;;;15.30;99.90;;;;;;4224413;28;20244;-74
2023/10/12 08:38:56;;;;;;;16.90;7.40;;;15.20;99.90;;;;;;4225017;28;20727;-78
2023/10/12 08:43:34;;;;;;;12.93;7.10;;;15.20;99.90;;;;;;4222792;28;20216;-77
2023/10/12 08:45:37;;;;;;;17.50;8.57;;;15.20;99.90;;;;;;4224153;28;20236;-78
2023/10/12 08:47:44;;;;;;;19.03;7.77;;;15.20;99.90;;;;;;4225258;28;20668;-78
2023/10/12 08:49:53;;;;;;;21.50;7.83;;;15.20;99.90;;;;;;4231126;28;20205;-75
2023/10/12 08:52:07;;;;;;;15.47;7.20;;;15.20;99.90;;;;;;4222221;28;20247;-74
2023/10/12 08:54:16;;;;;;;15.50;7.57;;;15.20;99.90;;;;;;4222908;28;20584;-74
2023/10/12 08:56:21;;;;;;;17.80;7.43;;;15.20;99.90;;;;;;4224054;28;20204;-76
2023/10/12 08:58:38;;;;;;;15.07;6.73;;;15.20;99.90;;;;;;4227236;28;20221;-76
2023/10/12 09:00:44;;;;;;;19.17;7.17;;;15.30;99.90;;;;;;4224940;28;20238;-77
2023/10/12 09:02:52;;;;;;;18.40;7.43;;;15.20;99.90;;;;;;4230240;28;20567;-76
2023/10/12 09:04:57;;;;;;;14.93;7.10;;;15.30;99.90;;;;;;4229093;27;20213;-75
2023/10/12 09:07:03;;;;;;;16.53;7.27;;;15.30;99.90;;;;;;4236210;27;20820;-76
2023/10/12 09:09:05;;;;;;;14.83;7.00;;;15.30;99.90;;;;;;4232105;27;20205;-76
2023/10/12 09:11:13;;;;;;;17.60;7.00;;;15.30;99.90;;;;;;4230958;27;20281;-74
2023/10/12 09:13:17;;;;;;;13.83;6.60;;;15.60;99.90;;;;;;4229214;28;20223;-74
2023/10/12 09:15:29;;;;;;;12.43;6.27;;;15.30;99.90;;;;;;4231485;28;20212;-76
2023/10/12 09:17:32;;;;;;;15.37;7.00;;;15.30;99.90;;;;;;4227941;28;20219;-74
2023/10/12 09:19:33;;;;;;;14.47;6.43;;;15.30;99.90;;;;;;4226934;27;20244;-77
2023/10/12 09:21:42;;;;;;;14.43;7.10;;;15.30;99.90;;;;;;4228047;27;20228;-77
2023/10/12 09:23:50;;;;;;;14.33;7.23;;;15.30;99.90;;;;;;4226271;28;20273;-75
2023/10/12 09:26:14;;;;;;;16.07;6.67;;;15.30;99.90;;;;;;4226649;27;20237;-75
2023/10/12 09:28:18;;;;;;;14.17;7.57;;;15.30;99.90;;;;;;4224384;28;20279;-76
2023/10/12 09:30:25;;;;;;;15.20;6.53;;;15.30;99.90;;;;;;4233030;27;20244;-73
2023/10/12 09:32:26;;;;;;;16.00;6.87;;;15.30;99.90;;;;;;4216328;27;20453;-75
2023/10/12 09:34:42;;;;;;;15.43;7.17;;;15.30;99.90;;;;;;4224741;28;20220;-73
2023/10/12 09:36:53;;;;;;;18.33;7.07;;;15.30;99.90;;;;;;4228755;27;20328;-73
2023/10/12 09:38:56;;;;;;;15.43;6.57;;;15.30;99.90;;;;;;4228126;27;20240;-75
2023/10/12 09:41:01;;;;;;;15.63;6.40;;;15.30;99.90;;;;;;4229549;27;20229;-73
2023/10/12 09:43:07;;;;;;;19.50;6.70;;;15.30;99.90;;;;;;4230025;27;20288;-74
2023/10/12 09:45:10;;;;;;;17.10;6.73;;;15.30;99.90;;;;;;4232845;27;20208;-73
2023/10/12 09:47:15;;;;;;;18.87;6.80;;;15.30;99.90;;;;;;4232377;27;20219;-74
2023/10/12 09:49:22;;;;;;;13.20;6.87;;;15.30;99.90;;;;;;4232644;27;20254;-73
2023/10/12 09:51:25;;;;;;;14.20;6.50;;;15.30;99.90;;;;;;4229936;27;20248;-77
2023/10/12 09:53:38;;;;;;;13.93;6.30;;;15.30;99.90;;;;;;4236434;27;20299;-74
2023/10/12 09:56:10;;;;;;;12.60;6.67;;;15.30;99.90;;;;;;4233220;27;20200;-74
2023/10/12 09:58:14;;;;;;;15.20;6.67;;;15.30;99.90;;;;;;4223792;27;20283;-74
2023/10/12 10:00:28;;;;;;;11.83;6.37;;;15.30;99.90;;;;;;4227379;27;20188;-73
2023/10/12 10:02:30;;;;;;;19.20;6.57;;;15.30;99.90;;;;;;4230530;27;20295;-73
2023/10/12 10:04:34;;;;;;;15.03;7.10;;;15.30;99.90;;;;;;4226777;27;20236;-74
2023/10/12 10:06:37;;;;;;;13.03;6.90;;;15.40;99.90;;;;;;4230816;27;20193;-75
2023/10/12 10:08:46;;;;;;;16.27;6.87;;;15.40;99.90;;;;;;4226071;28;20217;-78
2023/10/12 10:10:57;;;;;;;15.50;7.80;;;15.40;99.90;;;;;;4221236;27;20273;-76
2023/10/12 10:13:00;;;;;;;15.83;7.30;;;15.40;99.90;;;;;;4226129;27;20230;-76
2023/10/12 10:15:14;;;;;;;16.63;7.07;;;15.40;99.90;;;;;;4222730;28;20866;-74
2023/10/12 10:17:23;;;;;;;15.23;7.10;;;15.40;99.90;;;;;;4225096;28;20308;-75
2023/10/12 10:19:28;;;;;;;20.53;6.77;;;15.40;99.90;;;;;;4218662;27;20715;-76
2023/10/12 10:21:31;;;;;;;18.67;8.27;;;15.30;99.90;;;;;;4220695;27;20228;-76
2023/10/12 10:23:37;;;;;;;15.77;7.00;;;15.40;99.90;;;;;;4224205;27;20679;-76
2023/10/12 10:25:46;;;;;;;18.20;7.87;;;15.40;99.90;;;;;;4224877;28;20254;-76
2023/10/12 10:27:49;;;;;;;13.87;6.80;;;15.40;99.90;;;;;;4227088;27;20267;-74
2023/10/12 10:29:53;;;;;;;15.70;6.87;;;15.40;99.90;;;;;;4224503;28;20194;-75
2023/10/12 10:31:54;;;;;;;14.20;7.00;;;15.40;99.90;;;;;;4225801;27;20224;-75
2023/10/12 10:34:01;;;;;;;12.03;6.73;;;15.40;99.90;;;;;;4222770;28;20261;-75
2023/10/12 10:36:10;;;;;;;13.27;5.90;;;15.40;99.90;;;;;;4226473;27;20275;-75
2023/10/12 10:38:12;;;;;;;14.37;5.73;;;15.40;99.90;;;;;;4221756;27;20208;-75
2023/10/12 10:40:17;;;;;;;12.60;5.87;;;15.40;99.90;;;;;;4223737;27;20217;-75
2023/10/12 10:42:31;;;;;;;11.07;5.67;;;15.40;99.90;;;;;;4220527;28;20213;-75
2023/10/12 10:44:41;;;;;;;11.47;5.50;;;15.40;99.90;;;;;;4221057;27;20198;-75
2023/10/12 10:46:45;;;;;;;12.83;5.83;;;15.40;99.90;;;;;;4220442;28;20204;-75
2023/10/12 10:48:49;;;;;;;13.87;5.40;;;15.40;99.90;;;;;;4223074;28;20619;-77
2023/10/12 10:50:51;;;;;;;14.97;5.47;;;15.40;99.90;;;;;;4221008;28;20247;-78
2023/10/12 10:52:59;;;;;;;15.60;5.70;;;15.30;99.90;;;;;;4222913;27;20262;-75
2023/10/12 10:55:01;;;;;;;11.40;5.93;;;15.30;99.90;;;;;;4223676;28;20210;-77
2023/10/12 10:57:14;;;;;;;11.10;5.20;;;15.30;99.90;;;;;;4229014;27;20275;-74
2023/10/12 10:59:18;;;;;;;13.80;5.10;;;15.30;99.90;;;;;;4223981;27;20259;-76
2023/10/12 11:01:20;;;;;;;9.13;5.17;;;15.30;99.90;;;;;;4226271;27;20757;-77
2023/10/12 11:03:23;;;;;;;14.37;5.47;;;15.30;99.90;;;;;;4225850;27;20213;-76
2023/10/12 11:05:28;;;;;;;10.37;5.97;;;15.40;99.90;;;;;;4239853;27;20215;-76
2023/10/12 11:07:31;;;;;;;11.13;5.17;;;15.40;99.90;;;;;;4225068;27;20238;-75
2023/10/12 11:09:54;;;;;;;9.67;4.87;;;15.40;99.90;;;;;;4223212;27;20194;-77
2023/10/12 11:11:58;;;;;;;11.17;5.03;;;15.30;99.90;;;;;;4227342;27;20228;-76
2023/10/12 11:14:01;;;;;;;12.03;5.17;;;15.40;99.90;;;;;;4225348;27;20216;-76
2023/10/12 11:16:20;;;;;;;10.03;4.73;;;15.40;99.90;;;;;;4223794;27;20300;-77
2023/10/12 11:18:24;;;;;;;12.83;5.20;;;15.40;99.90;;;;;;4220805;27;20209;-76